sensor_id;sensor_type;location;lat;lon;timestamp;pressure;altitude;pressure_sealevel;temperature;humidity
14383;BME280;7275;50.328;8.720;2023-04-01T00:00:09;97932.41;;;15.44;50.98
14383;BME280;7275;50.328;8.720;2023-04-01T00:02:37;97949.25;;;15.45;50.87
14383;BME280;7275;50.328;8.720;2023-04-01T00:05:06;97944.78;;;15.45;50.94
14383;BME280;7275;50.328;8.720;2023-04-01T00:07:33;97942.97;;;15.46;50.90
14383;BME280;7275;50.328;8.720;2023-04-01T00:10:01;97941.84;;;15.48;50.91
14383;BME280;7275;50.328;8.720;2023-04-01T00:12:30;97944.50;;;15.48;50.78
14383;BME280;7275;50.328;8.720;2023-04-01T00:14:57;97936.41;;;15.50;50.75
14383;BME280;7275;50.328;8.720;2023-04-01T00:17:25;97936.41;;;15.50;51.01
14383;BME280;7275;50.328;8.720;2023-04-01T00:19:54;97948.72;;;15.51;50.73
14383;BME280;7275;50.328;8.720;2023-04-01T00:22:22;97934.56;;;15.50;50.90
14383;BME280;7275;50.328;8.720;2023-04-01T00:24:50;97932.19;;;15.47;50.86
14383;BME280;7275;50.328;8.720;2023-04-01T00:27:18;97936.66;;;15.47;51.07
14383;BME280;7275;50.328;8.720;2023-04-01T00:29:47;97945.63;;;15.46;50.88
14383;BME280;7275;50.328;8.720;2023-04-01T00:32:14;97949.25;;;15.45;50.89
14383;BME280;7275;50.328;8.720;2023-04-01T00:34:42;97947.66;;;15.42;51.02
14383;BME280;7275;50.328;8.720;2023-04-01T00:37:10;97947.09;;;15.39;50.98
14383;BME280;7275;50.328;8.720;2023-04-01T00:39:38;97937.66;;;15.35;51.14
14383;BME280;7275;50.328;8.720;2023-04-01T00:42:05;97945.78;;;15.33;51.12
14383;BME280;7275;50.328;8.720;2023-04-01T00:44:34;97937.34;;;15.28;51.29
14383;BME280;7275;50.328;8.720;2023-04-01T00:47:03;97941.38;;;15.23;51.19
14383;BME280;7275;50.328;8.720;2023-04-01T00:49:35;97934.34;;;15.21;51.36
14383;BME280;7275;50.328;8.720;2023-04-01T00:52:05;97940.66;;;15.20;51.27
14383;BME280;7275;50.328;8.720;2023-04-01T00:54:36;97937.84;;;15.22;51.35
14383;BME280;7275;50.328;8.720;2023-04-01T00:57:08;97936.16;;;15.21;51.26
14383;BME280;7275;50.328;8.720;2023-04-01T00:59:40;97943.03;;;15.23;51.34
14383;BME280;7275;50.328;8.720;2023-04-01T01:02:12;97926.94;;;15.25;51.13
14383;BME280;7275;50.328;8.720;2023-04-01T01:04:40;97928.78;;;15.25;51.19
14383;BME280;7275;50.328;8.720;2023-04-01T01:07:16;97924.97;;;15.27;51.09
14383;BME280;7275;50.328;8.720;2023-04-01T01:09:52;97926.81;;;15.27;51.19
14383;BME280;7275;50.328;8.720;2023-04-01T01:12:25;97925.84;;;15.28;51.14
14383;BME280;7275;50.328;8.720;2023-04-01T01:15:02;97931.03;;;15.29;51.08
14383;BME280;7275;50.328;8.720;2023-04-01T01:17:40;97946.88;;;15.31;51.04
14383;BME280;7275;50.328;8.720;2023-04-01T01:20:24;97921.38;;;15.28;51.02
14383;BME280;7275;50.328;8.720;2023-04-01T01:23:27;97922.31;;;15.27;51.16
14383;BME280;7275;50.328;8.720;2023-04-01T01:26:26;97927.66;;;15.27;51.10
14383;BME280;7275;50.328;8.720;2023-04-01T01:29:07;97923.88;;;15.30;50.96
14383;BME280;7275;50.328;8.720;2023-04-01T01:31:48;97930.78;;;15.32;50.97
14383;BME280;7275;50.328;8.720;2023-04-01T01:34:21;97920.97;;;15.33;50.90
14383;BME280;7275;50.328;8.720;2023-04-01T01:36:55;97926.16;;;15.34;50.99
14383;BME280;7275;50.328;8.720;2023-04-01T01:39:28;97921.09;;;15.31;50.85
14383;BME280;7275;50.328;8.720;2023-04-01T01:42:00;97925.31;;;15.34;50.94
14383;BME280;7275;50.328;8.720;2023-04-01T01:44:30;97923.66;;;15.33;50.91
14383;BME280;7275;50.328;8.720;2023-04-01T01:47:00;97934.00;;;15.36;50.88
14383;BME280;7275;50.328;8.720;2023-04-01T01:49:28;97917.22;;;15.35;50.65
14383;BME280;7275;50.328;8.720;2023-04-01T01:51:59;97922.66;;;15.34;50.91
14383;BME280;7275;50.328;8.720;2023-04-01T01:54:27;97923.66;;;15.33;51.03
14383;BME280;7275;50.328;8.720;2023-04-01T01:56:59;97917.47;;;15.32;50.73
14383;BME280;7275;50.328;8.720;2023-04-01T01:59:29;97928.97;;;15.33;50.83
14383;BME280;7275;50.328;8.720;2023-04-01T02:01:58;97922.22;;;15.29;51.08
14383;BME280;7275;50.328;8.720;2023-04-01T02:04:27;97924.53;;;15.22;51.18
14383;BME280;7275;50.328;8.720;2023-04-01T02:07:00;97923.97;;;15.18;51.09
14383;BME280;7275;50.328;8.720;2023-04-01T02:09:29;97930.63;;;15.13;51.23
14383;BME280;7275;50.328;8.720;2023-04-01T02:11:59;97926.41;;;15.10;51.11
14383;BME280;7275;50.328;8.720;2023-04-01T02:14:31;97920.38;;;15.08;51.42
14383;BME280;7275;50.328;8.720;2023-04-01T02:17:06;97919.56;;;15.08;51.54
14383;BME280;7275;50.328;8.720;2023-04-01T02:19:38;97920.38;;;15.08;51.14
14383;BME280;7275;50.328;8.720;2023-04-01T02:22:11;97923.88;;;15.09;51.27
14383;BME280;7275;50.328;8.720;2023-04-01T02:24:42;97936.34;;;15.08;51.29
14383;BME280;7275;50.328;8.720;2023-04-01T02:27:12;97929.59;;;15.04;51.36
14383;BME280;7275;50.328;8.720;2023-04-01T02:29:39;97915.00;;;14.99;51.61
14383;BME280;7275;50.328;8.720;2023-04-01T02:32:08;97922.25;;;14.97;51.59
14383;BME280;7275;50.328;8.720;2023-04-01T02:34:36;97926.84;;;14.95;51.72
14383;BME280;7275;50.328;8.720;2023-04-01T02:37:04;97923.22;;;14.96;51.72
14383;BME280;7275;50.328;8.720;2023-04-01T02:39:33;97918.03;;;14.94;51.70
14383;BME280;7275;50.328;8.720;2023-04-01T02:42:00;97913.56;;;14.95;51.65
14383;BME280;7275;50.328;8.720;2023-04-01T02:44:28;97919.72;;;14.95;51.51
14383;BME280;7275;50.328;8.720;2023-04-01T02:46:55;97925.88;;;14.96;51.57
14383;BME280;7275;50.328;8.720;2023-04-01T02:49:23;97911.75;;;14.95;51.55
14383;BME280;7275;50.328;8.720;2023-04-01T02:51:50;97923.94;;;14.98;51.49
14383;BME280;7275;50.328;8.720;2023-04-01T02:54:18;97923.81;;;14.99;51.29
14383;BME280;7275;50.328;8.720;2023-04-01T02:56:47;97918.50;;;14.99;51.50
14383;BME280;7275;50.328;8.720;2023-04-01T02:59:15;97911.63;;;14.97;51.47
14383;BME280;7275;50.328;8.720;2023-04-01T03:01:42;97924.78;;;14.98;51.56
14383;BME280;7275;50.328;8.720;2023-04-01T03:04:10;97918.75;;;14.96;51.66
14383;BME280;7275;50.328;8.720;2023-04-01T03:06:37;97904.59;;;14.96;51.69
14383;BME280;7275;50.328;8.720;2023-04-01T03:09:05;97917.06;;;14.95;51.71
14383;BME280;7275;50.328;8.720;2023-04-01T03:11:32;97909.09;;;14.95;51.62
14383;BME280;7275;50.328;8.720;2023-04-01T03:14:01;97911.63;;;14.97;51.61
14383;BME280;7275;50.328;8.720;2023-04-01T03:16:29;97909.91;;;14.96;51.52
14383;BME280;7275;50.328;8.720;2023-04-01T03:18:57;97913.41;;;14.96;51.57
14383;BME280;7275;50.328;8.720;2023-04-01T03:21:26;97921.91;;;14.90;51.92
14383;BME280;7275;50.328;8.720;2023-04-01T03:23:53;97914.16;;;14.87;51.98
14383;BME280;7275;50.328;8.720;2023-04-01T03:26:20;97918.91;;;14.84;51.97
14383;BME280;7275;50.328;8.720;2023-04-01T03:28:48;97919.91;;;14.83;51.97
14383;BME280;7275;50.328;8.720;2023-04-01T03:31:17;97922.56;;;14.83;51.90
14383;BME280;7275;50.328;8.720;2023-04-01T03:33:48;97921.72;;;14.82;51.84
14383;BME280;7275;50.328;8.720;2023-04-01T03:36:16;97926.19;;;14.82;51.98
14383;BME280;7275;50.328;8.720;2023-04-01T03:38:44;97922.94;;;14.78;52.12
14383;BME280;7275;50.328;8.720;2023-04-01T03:41:12;97925.72;;;14.77;52.10
14383;BME280;7275;50.328;8.720;2023-04-01T03:43:40;97930.34;;;14.75;52.05
14383;BME280;7275;50.328;8.720;2023-04-01T03:46:08;97919.81;;;14.73;52.16
14383;BME280;7275;50.328;8.720;2023-04-01T03:48:37;97922.59;;;14.72;52.12
14383;BME280;7275;50.328;8.720;2023-04-01T03:51:06;97920.78;;;14.72;52.06
14383;BME280;7275;50.328;8.720;2023-04-01T03:53:34;97929.00;;;14.69;52.21
14383;BME280;7275;50.328;8.720;2023-04-01T03:56:04;97926.63;;;14.66;52.34
14383;BME280;7275;50.328;8.720;2023-04-01T03:58:31;97926.72;;;14.65;52.29
14383;BME280;7275;50.328;8.720;2023-04-01T04:00:59;97920.56;;;14.64;52.38
14383;BME280;7275;50.328;8.720;2023-04-01T04:03:26;97936.41;;;14.66;52.43
14383;BME280;7275;50.328;8.720;2023-04-01T04:05:55;97919.72;;;14.64;52.41
14383;BME280;7275;50.328;8.720;2023-04-01T04:08:23;97924.06;;;14.65;52.46
14383;BME280;7275;50.328;8.720;2023-04-01T04:10:54;97920.56;;;14.64;52.52
14383;BME280;7275;50.328;8.720;2023-04-01T04:13:22;97919.72;;;14.64;52.41
14383;BME280;7275;50.328;8.720;2023-04-01T04:15:49;97919.84;;;14.62;52.58
14383;BME280;7275;50.328;8.720;2023-04-01T04:18:17;97917.44;;;14.59;52.51
14383;BME280;7275;50.328;8.720;2023-04-01T04:20:45;97922.03;;;14.57;52.70
14383;BME280;7275;50.328;8.720;2023-04-01T04:23:15;97923.84;;;14.57;52.81
14383;BME280;7275;50.328;8.720;2023-04-01T04:25:53;97924.13;;;14.54;52.94
14383;BME280;7275;50.328;8.720;2023-04-01T04:28:20;97916.13;;;14.54;52.91
14383;BME280;7275;50.328;8.720;2023-04-01T04:30:48;97926.63;;;14.55;52.72
14383;BME280;7275;50.328;8.720;2023-04-01T04:33:15;97918.66;;;14.55;52.73
14383;BME280;7275;50.328;8.720;2023-04-01T04:35:43;97920.47;;;14.55;52.99
14383;BME280;7275;50.328;8.720;2023-04-01T04:38:10;97920.59;;;14.53;53.00
14383;BME280;7275;50.328;8.720;2023-04-01T04:40:40;97924.34;;;14.51;53.01
14383;BME280;7275;50.328;8.720;2023-04-01T04:43:10;97927.84;;;14.51;53.00
14383;BME280;7275;50.328;8.720;2023-04-01T04:45:37;97921.81;;;14.49;53.06
14383;BME280;7275;50.328;8.720;2023-04-01T04:48:07;97928.94;;;14.49;53.10
14383;BME280;7275;50.328;8.720;2023-04-01T04:50:35;97926.28;;;14.49;53.13
14383;BME280;7275;50.328;8.720;2023-04-01T04:53:02;97928.94;;;14.49;53.19
14383;BME280;7275;50.328;8.720;2023-04-01T04:55:30;97918.31;;;14.49;53.31
14383;BME280;7275;50.328;8.720;2023-04-01T04:57:59;97918.31;;;14.49;53.13
14383;BME280;7275;50.328;8.720;2023-04-01T05:00:26;97926.16;;;14.50;53.22
14383;BME280;7275;50.328;8.720;2023-04-01T05:02:54;97919.03;;;14.51;53.33
14383;BME280;7275;50.328;8.720;2023-04-01T05:05:21;97928.56;;;14.53;53.23
14383;BME280;7275;50.328;8.720;2023-04-01T05:07:49;97925.06;;;14.53;53.41
14383;BME280;7275;50.328;8.720;2023-04-01T05:10:17;97921.31;;;14.55;53.33
14383;BME280;7275;50.328;8.720;2023-04-01T05:12:44;97923.84;;;14.57;53.19
14383;BME280;7275;50.328;8.720;2023-04-01T05:15:13;97919.25;;;14.59;53.25
14383;BME280;7275;50.328;8.720;2023-04-01T05:17:41;97923.72;;;14.58;53.13
14383;BME280;7275;50.328;8.720;2023-04-01T05:20:09;97918.28;;;14.60;53.14
14383;BME280;7275;50.328;8.720;2023-04-01T05:22:39;97912.84;;;14.61;53.14
14383;BME280;7275;50.328;8.720;2023-04-01T05:25:07;97918.16;;;14.61;53.12
14383;BME280;7275;50.328;8.720;2023-04-01T05:27:34;97916.22;;;14.63;53.03
14383;BME280;7275;50.328;8.720;2023-04-01T05:30:02;97915.97;;;14.66;53.00
14383;BME280;7275;50.328;8.720;2023-04-01T05:32:31;97915.00;;;14.67;53.21
14383;BME280;7275;50.328;8.720;2023-04-01T05:34:59;97913.03;;;14.69;53.03
14383;BME280;7275;50.328;8.720;2023-04-01T05:37:27;97919.94;;;14.72;53.05
14383;BME280;7275;50.328;8.720;2023-04-01T05:39:54;97921.50;;;14.74;53.03
14383;BME280;7275;50.328;8.720;2023-04-01T05:42:21;97913.53;;;14.74;53.00
14383;BME280;7275;50.328;8.720;2023-04-01T05:44:49;97913.38;;;14.76;53.07
14383;BME280;7275;50.328;8.720;2023-04-01T05:47:16;97915.91;;;14.77;53.10
14383;BME280;7275;50.328;8.720;2023-04-01T05:49:45;97910.50;;;14.79;53.08
14383;BME280;7275;50.328;8.720;2023-04-01T05:52:13;97923.66;;;14.80;52.99
14383;BME280;7275;50.328;8.720;2023-04-01T05:54:40;97918.34;;;14.80;53.08
14383;BME280;7275;50.328;8.720;2023-04-01T05:57:08;97915.69;;;14.80;53.03
14383;BME280;7275;50.328;8.720;2023-04-01T05:59:35;97909.38;;;14.81;53.15
14383;BME280;7275;50.328;8.720;2023-04-01T06:02:03;97914.44;;;14.84;53.06
14383;BME280;7275;50.328;8.720;2023-04-01T06:04:34;97904.66;;;14.85;53.25
14383;BME280;7275;50.328;8.720;2023-04-01T06:07:11;97910.94;;;14.84;53.35
14383;BME280;7275;50.328;8.720;2023-04-01T06:09:39;97914.44;;;14.84;53.35
14383;BME280;7275;50.328;8.720;2023-04-01T06:12:17;97909.00;;;14.86;53.32
14383;BME280;7275;50.328;8.720;2023-04-01T06:14:59;97908.75;;;14.89;53.32
14383;BME280;7275;50.328;8.720;2023-04-01T06:17:41;97914.91;;;14.89;53.16
14383;BME280;7275;50.328;8.720;2023-04-01T06:20:20;97920.34;;;14.88;53.31
14383;BME280;7275;50.328;8.720;2023-04-01T06:23:06;97917.59;;;14.89;53.36
14383;BME280;7275;50.328;8.720;2023-04-01T06:26:06;97927.81;;;14.94;53.23
14383;BME280;7275;50.328;8.720;2023-04-01T06:31:36;97911.75;;;14.95;53.31
14383;BME280;7275;50.328;8.720;2023-04-01T06:34:20;97908.81;;;14.98;53.34
14383;BME280;7275;50.328;8.720;2023-04-01T06:37:05;97928.75;;;15.04;53.18
14383;BME280;7275;50.328;8.720;2023-04-01T06:39:50;97917.84;;;15.07;53.13
14383;BME280;7275;50.328;8.720;2023-04-01T06:42:36;97914.22;;;15.08;53.17
14383;BME280;7275;50.328;8.720;2023-04-01T06:45:16;97922.22;;;15.08;53.14
14383;BME280;7275;50.328;8.720;2023-04-01T06:47:57;97921.50;;;15.06;53.21
14383;BME280;7275;50.328;8.720;2023-04-01T06:50:30;97921.50;;;15.06;53.35
14383;BME280;7275;50.328;8.720;2023-04-01T06:53:06;97911.66;;;15.06;53.47
14383;BME280;7275;50.328;8.720;2023-04-01T06:55:41;97920.38;;;15.08;53.39
14383;BME280;7275;50.328;8.720;2023-04-01T06:58:19;97924.34;;;15.14;53.54
14383;BME280;7275;50.328;8.720;2023-04-01T07:00:50;97927.34;;;15.20;53.43
14383;BME280;7275;50.328;8.720;2023-04-01T07:03:22;97913.75;;;15.23;53.40
14383;BME280;7275;50.328;8.720;2023-04-01T07:05:57;97921.50;;;15.27;53.49
14383;BME280;7275;50.328;8.720;2023-04-01T07:08:27;97933.69;;;15.29;53.47
14383;BME280;7275;50.328;8.720;2023-04-01T07:11:01;97920.84;;;15.34;53.40
14383;BME280;7275;50.328;8.720;2023-04-01T07:13:34;97916.09;;;15.38;53.44
14383;BME280;7275;50.328;8.720;2023-04-01T07:16:08;97934.72;;;15.38;53.21
14383;BME280;7275;50.328;8.720;2023-04-01T07:18:41;97932.06;;;15.38;53.18
14383;BME280;7275;50.328;8.720;2023-04-01T07:21:21;97939.22;;;15.37;53.19
14383;BME280;7275;50.328;8.720;2023-04-01T07:23:50;97931.97;;;15.39;53.22
14383;BME280;7275;50.328;8.720;2023-04-01T07:26:23;97936.28;;;15.40;53.11
14383;BME280;7275;50.328;8.720;2023-04-01T07:28:52;97929.91;;;15.43;53.20
14383;BME280;7275;50.328;8.720;2023-04-01T07:31:30;97935.78;;;15.46;53.06
14383;BME280;7275;50.328;8.720;2023-04-01T07:34:06;97940.88;;;15.49;53.13
14383;BME280;7275;50.328;8.720;2023-04-01T07:36:39;97931.78;;;15.52;52.98
14383;BME280;7275;50.328;8.720;2023-04-01T07:39:18;97937.41;;;15.58;53.35
14383;BME280;7275;50.328;8.720;2023-04-01T07:41:58;97947.28;;;15.67;53.44
14383;BME280;7275;50.328;8.720;2023-04-01T07:44:34;97941.31;;;15.75;53.08
14383;BME280;7275;50.328;8.720;2023-04-01T07:47:16;97940.34;;;15.85;53.24
14383;BME280;7275;50.328;8.720;2023-04-01T07:49:55;97950.94;;;15.96;52.99
14383;BME280;7275;50.328;8.720;2023-04-01T07:52:35;97940.19;;;16.08;53.10
14383;BME280;7275;50.328;8.720;2023-04-01T07:55:12;97954.25;;;16.19;53.07
14383;BME280;7275;50.328;8.720;2023-04-01T07:57:50;97950.50;;;16.31;53.02
14383;BME280;7275;50.328;8.720;2023-04-01T08:00:23;97947.59;;;16.44;52.95
14383;BME280;7275;50.328;8.720;2023-04-01T08:03:11;97945.56;;;16.57;52.82
14383;BME280;7275;50.328;8.720;2023-04-01T08:05:51;97947.69;;;16.63;52.54
14383;BME280;7275;50.328;8.720;2023-04-01T08:08:31;97962.31;;;16.68;52.43
14383;BME280;7275;50.328;8.720;2023-04-01T08:11:07;97951.19;;;16.73;52.28
14383;BME280;7275;50.328;8.720;2023-04-01T08:13:40;97955.31;;;16.77;52.47
14383;BME280;7275;50.328;8.720;2023-04-01T08:16:16;97960.91;;;16.84;52.36
14383;BME280;7275;50.328;8.720;2023-04-01T08:18:53;97970.47;;;16.86;52.19
14383;BME280;7275;50.328;8.720;2023-04-01T08:21:25;97964.97;;;16.88;51.99
14383;BME280;7275;50.328;8.720;2023-04-01T08:23:56;97967.53;;;16.89;52.07
14383;BME280;7275;50.328;8.720;2023-04-01T08:26:28;97969.34;;;16.89;52.06
14383;BME280;7275;50.328;8.720;2023-04-01T08:29:02;97963.31;;;16.87;51.86
14383;BME280;7275;50.328;8.720;2023-04-01T08:31:35;97974.94;;;16.86;51.72
14383;BME280;7275;50.328;8.720;2023-04-01T08:34:09;97966.13;;;16.85;51.87
14383;BME280;7275;50.328;8.720;2023-04-01T08:36:43;97979.31;;;16.87;51.89
14383;BME280;7275;50.328;8.720;2023-04-01T08:39:16;97974.94;;;16.86;51.85
14383;BME280;7275;50.328;8.720;2023-04-01T08:42:25;97966.25;;;16.84;51.98
14383;BME280;7275;50.328;8.720;2023-04-01T08:48:33;97985.06;;;16.82;52.03
14383;BME280;7275;50.328;8.720;2023-04-01T08:51:22;97983.50;;;16.79;52.04
14383;BME280;7275;50.328;8.720;2023-04-01T08:54:07;97977.34;;;16.79;51.98
14383;BME280;7275;50.328;8.720;2023-04-01T08:56:41;97966.69;;;16.79;52.14
14383;BME280;7275;50.328;8.720;2023-04-01T08:59:22;97975.50;;;16.79;52.02
14383;BME280;7275;50.328;8.720;2023-04-01T09:02:11;97989.16;;;16.76;52.16
14383;BME280;7275;50.328;8.720;2023-04-01T09:05:11;97984.06;;;16.73;52.18
14383;BME280;7275;50.328;8.720;2023-04-01T09:07:51;97984.38;;;16.70;52.24
14383;BME280;7275;50.328;8.720;2023-04-01T09:10:39;97983.66;;;16.68;52.28
14383;BME280;7275;50.328;8.720;2023-04-01T09:13:32;97997.97;;;16.67;52.21
14383;BME280;7275;50.328;8.720;2023-04-01T09:16:27;97986.59;;;16.65;52.30
14383;BME280;7275;50.328;8.720;2023-04-01T09:19:14;97992.78;;;16.66;52.25
14383;BME280;7275;50.328;8.720;2023-04-01T09:22:17;97992.78;;;16.66;52.58
14383;BME280;7275;50.328;8.720;2023-04-01T09:25:06;97994.03;;;16.71;52.47
14383;BME280;7275;50.328;8.720;2023-04-01T09:27:44;97999.25;;;16.83;52.60
14383;BME280;7275;50.328;8.720;2023-04-01T09:30:41;97992.66;;;16.96;52.46
14383;BME280;7275;50.328;8.720;2023-04-01T09:33:42;97988.06;;;17.08;52.46
14383;BME280;7275;50.328;8.720;2023-04-01T09:36:24;97993.41;;;17.17;52.33
14383;BME280;7275;50.328;8.720;2023-04-01T09:39:03;98005.06;;;17.26;52.16
14383;BME280;7275;50.328;8.720;2023-04-01T09:41:47;98003.25;;;17.26;52.04
14383;BME280;7275;50.328;8.720;2023-04-01T09:44:26;98002.53;;;17.24;51.92
14383;BME280;7275;50.328;8.720;2023-04-01T09:47:07;97999.03;;;17.24;52.10
14383;BME280;7275;50.328;8.720;2023-04-01T09:49:55;98004.09;;;17.27;52.21
14383;BME280;7275;50.328;8.720;2023-04-01T09:52:32;97995.78;;;17.30;51.96
14383;BME280;7275;50.328;8.720;2023-04-01T09:55:39;98002.53;;;17.34;51.99
14383;BME280;7275;50.328;8.720;2023-04-01T09:58:33;98004.94;;;17.37;52.02
14383;BME280;7275;50.328;8.720;2023-04-01T10:01:39;98010.97;;;17.39;52.05
14383;BME280;7275;50.328;8.720;2023-04-01T10:04:23;98017.59;;;17.35;51.79
14383;BME280;7275;50.328;8.720;2023-04-01T10:10:30;98025.19;;;17.39;52.01
14383;BME280;7275;50.328;8.720;2023-04-01T10:13:30;98009.88;;;17.41;52.00
14383;BME280;7275;50.328;8.720;2023-04-01T10:16:21;98018.28;;;17.37;51.70
14383;BME280;7275;50.328;8.720;2023-04-01T10:19:11;98018.56;;;17.34;52.00
14383;BME280;7275;50.328;8.720;2023-04-01T10:21:57;98027.56;;;17.33;52.08
14383;BME280;7275;50.328;8.720;2023-04-01T10:24:49;98013.38;;;17.32;52.06
14383;BME280;7275;50.328;8.720;2023-04-01T10:27:33;98017.84;;;17.32;52.04
14383;BME280;7275;50.328;8.720;2023-04-01T10:30:51;98012.50;;;17.32;52.21
14383;BME280;7275;50.328;8.720;2023-04-01T10:33:50;98014.34;;;17.31;52.27
14383;BME280;7275;50.328;8.720;2023-04-01T10:39:37;98028.53;;;17.32;52.27
14383;BME280;7275;50.328;8.720;2023-04-01T10:42:37;98018.84;;;17.31;52.40
14383;BME280;7275;50.328;8.720;2023-04-01T10:45:32;98023.91;;;17.34;52.38
14383;BME280;7275;50.328;8.720;2023-04-01T10:48:14;98023.50;;;17.38;52.36
14383;BME280;7275;50.328;8.720;2023-04-01T10:51:10;98021.50;;;17.40;52.32
14383;BME280;7275;50.328;8.720;2023-04-01T10:56:51;98020.41;;;17.43;52.43
14383;BME280;7275;50.328;8.720;2023-04-01T10:59:53;98021.94;;;17.45;52.62
14383;BME280;7275;50.328;8.720;2023-04-01T11:05:52;98024.88;;;17.42;52.54
14383;BME280;7275;50.328;8.720;2023-04-01T11:08:48;98030.09;;;17.44;52.48
14383;BME280;7275;50.328;8.720;2023-04-01T11:11:47;98023.63;;;17.46;52.30
14383;BME280;7275;50.328;8.720;2023-04-01T11:15:00;98018.56;;;17.43;52.66
14383;BME280;7275;50.328;8.720;2023-04-01T11:17:59;98022.78;;;17.46;52.56
14383;BME280;7275;50.328;8.720;2023-04-01T11:20:45;98022.78;;;17.46;52.58
14383;BME280;7275;50.328;8.720;2023-04-01T11:23:40;98033.47;;;17.46;52.63
14383;BME280;7275;50.328;8.720;2023-04-01T11:26:46;98027.41;;;17.44;52.70
14383;BME280;7275;50.328;8.720;2023-04-01T11:32:38;98036.44;;;17.52;52.83
14383;BME280;7275;50.328;8.720;2023-04-01T11:35:26;98027.59;;;17.62;53.10
14383;BME280;7275;50.328;8.720;2023-04-01T11:38:13;98029.28;;;17.72;52.98
14383;BME280;7275;50.328;8.720;2023-04-01T11:40:52;98029.25;;;17.82;52.97
14383;BME280;7275;50.328;8.720;2023-04-01T11:43:27;98029.25;;;17.91;52.73
14383;BME280;7275;50.328;8.720;2023-04-01T11:46:05;98038.09;;;18.01;52.60
14383;BME280;7275;50.328;8.720;2023-04-01T11:48:51;98033.56;;;18.11;52.52
14383;BME280;7275;50.328;8.720;2023-04-01T11:51:42;98044.78;;;18.24;52.59
14383;BME280;7275;50.328;8.720;2023-04-01T11:54:25;98038.25;;;18.36;52.40
14383;BME280;7275;50.328;8.720;2023-04-01T11:57:10;98056.69;;;18.49;52.25
14383;BME280;7275;50.328;8.720;2023-04-01T12:03:08;98056.81;;;18.57;51.81
14383;BME280;7275;50.328;8.720;2023-04-01T12:05:43;98064.69;;;18.59;51.95
14383;BME280;7275;50.328;8.720;2023-04-01T12:08:36;98057.81;;;18.56;51.94
14383;BME280;7275;50.328;8.720;2023-04-01T12:11:12;98061.47;;;18.55;51.87
14383;BME280;7275;50.328;8.720;2023-04-01T12:13:51;98064.56;;;18.51;51.69
14383;BME280;7275;50.328;8.720;2023-04-01T12:16:29;98071.59;;;18.42;51.59
14383;BME280;7275;50.328;8.720;2023-04-01T12:19:11;98063.78;;;18.31;51.63
14383;BME280;7275;50.328;8.720;2023-04-01T12:21:48;98065.50;;;18.22;51.72
14383;BME280;7275;50.328;8.720;2023-04-01T12:24:44;98060.84;;;18.15;51.98
14383;BME280;7275;50.328;8.720;2023-04-01T12:27:41;98064.41;;;18.06;52.18
14383;BME280;7275;50.328;8.720;2023-04-01T12:30:40;98061.88;;;18.04;52.29
14383;BME280;7275;50.328;8.720;2023-04-01T12:33:30;98064.66;;;18.03;52.22
14383;BME280;7275;50.328;8.720;2023-04-01T12:36:13;98069.59;;;18.07;52.41
14383;BME280;7275;50.328;8.720;2023-04-01T12:38:51;98062.97;;;18.11;52.52
14383;BME280;7275;50.328;8.720;2023-04-01T12:41:30;98070.41;;;18.27;52.44
14383;BME280;7275;50.328;8.720;2023-04-01T12:44:26;98079.63;;;18.42;52.34
14383;BME280;7275;50.328;8.720;2023-04-01T12:47:14;98070.75;;;18.61;52.36
14383;BME280;7275;50.328;8.720;2023-04-01T12:50:08;98065.97;;;18.82;52.24
14383;BME280;7275;50.328;8.720;2023-04-01T12:52:45;98069.56;;;19.00;51.83
14383;BME280;7275;50.328;8.720;2023-04-01T12:55:37;98075.97;;;19.17;51.66
14383;BME280;7275;50.328;8.720;2023-04-01T12:58:37;98072.50;;;19.24;51.61
14383;BME280;7275;50.328;8.720;2023-04-01T13:01:35;98075.03;;;19.26;51.34
14383;BME280;7275;50.328;8.720;2023-04-01T13:04:28;98081.56;;;19.23;51.17
14383;BME280;7275;50.328;8.720;2023-04-01T13:07:10;98089.19;;;19.18;51.19
14383;BME280;7275;50.328;8.720;2023-04-01T13:09:46;98095.00;;;19.13;51.27
14383;BME280;7275;50.328;8.720;2023-04-01T13:12:34;98099.28;;;19.06;51.22
14383;BME280;7275;50.328;8.720;2023-04-01T13:15:13;98085.19;;;19.04;51.32
14383;BME280;7275;50.328;8.720;2023-04-01T13:17:49;98090.09;;;19.09;51.50
14383;BME280;7275;50.328;8.720;2023-04-01T13:20:29;98087.41;;;19.09;51.37
14383;BME280;7275;50.328;8.720;2023-04-01T13:23:11;98093.06;;;19.06;51.33
14383;BME280;7275;50.328;8.720;2023-04-01T13:25:49;98086.19;;;19.03;51.38
14383;BME280;7275;50.328;8.720;2023-04-01T13:28:35;98088.59;;;18.97;51.32
14383;BME280;7275;50.328;8.720;2023-04-01T13:31:11;98087.38;;;18.91;51.32
14383;BME280;7275;50.328;8.720;2023-04-01T13:33:47;98097.41;;;18.89;51.58
14383;BME280;7275;50.328;8.720;2023-04-01T13:36:26;98099.91;;;18.91;51.53
14383;BME280;7275;50.328;8.720;2023-04-01T13:39:22;98108.63;;;18.93;51.28
14383;BME280;7275;50.328;8.720;2023-04-01T13:42:07;98103.44;;;18.91;51.47
14383;BME280;7275;50.328;8.720;2023-04-01T13:44:43;98100.31;;;18.96;51.57
14383;BME280;7275;50.328;8.720;2023-04-01T13:50:48;98107.44;;;19.05;51.61
14383;BME280;7275;50.328;8.720;2023-04-01T13:53:36;98099.13;;;19.08;51.63
14383;BME280;7275;50.328;8.720;2023-04-01T13:56:23;98099.66;;;19.11;51.50
14383;BME280;7275;50.328;8.720;2023-04-01T13:59:06;98106.41;;;19.15;51.40
14383;BME280;7275;50.328;8.720;2023-04-01T14:01:40;98108.09;;;19.17;51.26
14383;BME280;7275;50.328;8.720;2023-04-01T14:04:41;98107.78;;;19.20;51.36
14383;BME280;7275;50.328;8.720;2023-04-01T14:07:36;98110.72;;;19.26;51.47
14383;BME280;7275;50.328;8.720;2023-04-01T14:10:19;98110.09;;;19.32;51.10
14383;BME280;7275;50.328;8.720;2023-04-01T14:12:57;98115.63;;;19.31;51.08
14383;BME280;7275;50.328;8.720;2023-04-01T14:15:49;98114.25;;;19.27;50.96
14383;BME280;7275;50.328;8.720;2023-04-01T14:18:37;98121.06;;;19.21;50.97
14383;BME280;7275;50.328;8.720;2023-04-01T14:21:23;98123.78;;;19.11;50.97
14383;BME280;7275;50.328;8.720;2023-04-01T14:24:20;98116.63;;;19.02;51.16
14383;BME280;7275;50.328;8.720;2023-04-01T14:27:10;98130.75;;;18.95;51.29
14383;BME280;7275;50.328;8.720;2023-04-01T14:29:51;98123.41;;;18.97;51.40
14383;BME280;7275;50.328;8.720;2023-04-01T14:32:32;98114.66;;;19.04;51.46